createdAt,value
2018-09-28T00:02:07.159Z,56100.50
2018-09-28T00:04:36.318Z,56119.01
2018-09-28T00:07:05.513Z,56094.33
2018-09-28T00:09:34.714Z,56114.90
2018-09-28T00:12:03.856Z,56128.27
2018-09-28T00:14:33.015Z,56089.19
2018-09-28T00:17:02.224Z,56104.62
2018-09-28T00:19:31.474Z,56117.98
2018-09-28T00:22:00.665Z,56113.87
2018-09-28T00:24:29.846Z,56131.35
2018-09-28T00:26:58.995Z,56087.14
2018-09-28T00:29:28.189Z,56085.08
2018-09-28T00:31:57.375Z,56137.52
2018-09-28T00:34:26.570Z,56104.62
2018-09-28T00:36:55.739Z,56074.80
2018-09-28T00:39:24.885Z,56129.29
2018-09-28T00:41:54.045Z,56115.93
2018-09-28T00:44:23.235Z,56087.14
2018-09-28T00:46:52.425Z,56139.57
2018-09-28T00:49:21.627Z,56104.62
2018-09-28T00:51:50.777Z,56085.08
2018-09-28T00:54:19.954Z,56112.84
2018-09-28T00:56:49.159Z,56139.57
2018-09-28T00:59:18.326Z,56090.22
2018-09-28T01:01:47.458Z,56130.32
2018-09-28T01:04:16.671Z,56095.36
2018-09-28T01:06:45.822Z,56113.87
2018-09-28T01:09:15.911Z,56129.29
2018-09-28T01:11:45.422Z,56135.46
2018-09-28T01:14:14.589Z,56092.28
2018-09-28T01:16:43.754Z,56127.23
2018-09-28T01:19:12.948Z,56134.43
2018-09-28T01:21:42.062Z,56113.87
2018-09-28T01:24:11.261Z,56088.16
2018-09-28T01:26:40.392Z,56083.02
2018-09-28T01:29:09.696Z,56129.29
2018-09-28T01:31:38.821Z,56129.29
2018-09-28T01:34:08.073Z,56103.59
2018-09-28T01:36:37.249Z,56116.95
2018-09-28T01:39:08.053Z,56137.52
2018-09-28T01:41:37.339Z,56083.02
2018-09-28T01:44:06.460Z,56119.01
2018-09-28T01:46:35.616Z,56101.53
2018-09-28T01:49:04.811Z,56110.79
2018-09-28T01:51:34.058Z,56117.98
2018-09-28T01:54:03.240Z,56116.95
2018-09-28T01:56:32.398Z,56142.66
2018-09-28T01:59:01.580Z,56120.04
2018-09-28T02:01:30.776Z,56125.18
2018-09-28T02:04:00.284Z,56134.43
2018-09-28T02:06:29.480Z,56114.90
2018-09-28T02:08:58.682Z,56114.90
2018-09-28T02:11:27.860Z,56135.46
2018-09-28T02:13:57.020Z,56089.19
2018-09-28T02:16:26.172Z,56102.56
2018-09-28T02:18:55.282Z,56137.52
2018-09-28T02:21:24.711Z,56082.00
2018-09-28T02:23:53.857Z,56106.67
2018-09-28T02:26:22.986Z,56115.93
2018-09-28T02:28:52.085Z,56095.36
2018-09-28T02:31:21.245Z,56093.30
2018-09-28T02:33:50.439Z,56119.01
2018-09-28T02:36:19.594Z,56151.91
2018-09-28T02:38:48.778Z,56116.95
2018-09-28T02:41:17.953Z,56097.42
2018-09-28T02:43:47.134Z,56115.93
2018-09-28T02:46:16.353Z,56090.22
2018-09-28T02:48:45.585Z,56114.90
2018-09-28T02:51:14.848Z,56124.15
2018-09-28T02:53:44.003Z,56114.90
2018-09-28T02:56:13.252Z,56104.62
2018-09-28T02:58:42.428Z,56123.12
2018-09-28T03:01:11.604Z,56114.90
2018-09-28T03:03:40.815Z,56101.53
2018-09-28T03:06:10.008Z,56130.32
2018-09-28T03:08:39.201Z,56133.41
2018-09-28T03:11:08.372Z,56119.01
2018-09-28T03:13:37.522Z,56099.47
2018-09-28T03:16:06.752Z,56110.79
2018-09-28T03:18:36.179Z,56110.79
2018-09-28T03:21:05.349Z,56107.70
2018-09-28T03:23:34.559Z,56094.33
2018-09-28T03:26:03.762Z,56132.38
2018-09-28T03:28:32.908Z,56102.56
2018-09-28T03:31:02.118Z,56115.93
2018-09-28T03:33:31.285Z,56116.95
2018-09-28T03:36:00.512Z,56126.21
2018-09-28T03:38:29.667Z,56139.57
2018-09-28T03:40:58.784Z,56125.18
2018-09-28T03:43:27.958Z,56103.59
2018-09-28T03:45:57.124Z,56121.07
2018-09-28T03:48:26.370Z,56096.39
2018-09-28T03:50:55.545Z,56084.05
2018-09-28T03:53:25.068Z,56083.02
2018-09-28T03:55:54.294Z,56110.79
2018-09-28T03:58:23.464Z,56066.57
2018-09-28T04:00:52.650Z,56089.19
2018-09-28T04:03:21.823Z,56102.56
2018-09-28T04:05:51.008Z,56100.50
2018-09-28T04:08:20.193Z,56094.33
2018-09-28T04:10:49.357Z,56083.02
2018-09-28T04:13:18.516Z,56132.38
2018-09-28T04:15:47.678Z,56132.38
2018-09-28T04:18:16.881Z,56099.47
2018-09-28T04:20:52.572Z,56087.14
2018-09-28T04:23:21.744Z,56116.95
2018-09-28T04:25:50.919Z,56110.79
2018-09-28T04:28:20.158Z,56088.16
2018-09-28T04:30:49.334Z,56107.70
2018-09-28T04:33:18.530Z,56066.57
2018-09-28T04:35:47.745Z,56131.35
2018-09-28T04:38:17.202Z,56129.29
2018-09-28T04:40:46.406Z,56102.56
2018-09-28T04:43:15.640Z,56117.98
2018-09-28T04:45:44.890Z,56097.42
2018-09-28T04:48:13.987Z,56079.94
2018-09-28T04:50:43.161Z,56110.79
2018-09-28T04:53:12.332Z,56073.77
2018-09-28T04:55:41.493Z,56114.90
2018-09-28T04:58:10.650Z,56079.94
2018-09-28T05:00:39.871Z,56089.19
2018-09-28T05:03:09.048Z,56094.33
2018-09-28T05:05:38.195Z,56061.43
2018-09-28T05:08:07.363Z,56072.74
2018-09-28T05:10:36.551Z,56082.00
2018-09-28T05:13:05.822Z,56110.79
2018-09-28T05:15:34.980Z,56111.81
2018-09-28T05:18:04.200Z,56114.90
2018-09-28T05:20:33.349Z,56096.39
2018-09-28T05:23:02.542Z,56079.94
2018-09-28T05:25:31.700Z,56120.04
2018-09-28T05:28:00.927Z,56084.05
2018-09-28T05:30:30.147Z,56083.02
2018-09-28T05:32:59.541Z,56072.74
2018-09-28T05:35:28.542Z,56094.33
2018-09-28T05:37:57.698Z,56098.45
2018-09-28T05:40:26.821Z,56082.00
2018-09-28T05:42:55.965Z,56112.84
2018-09-28T05:45:25.173Z,56094.33
2018-09-28T05:47:54.383Z,56107.70
2018-09-28T05:50:23.480Z,56105.64
2018-09-28T05:52:52.681Z,56096.39
2018-09-28T05:55:21.869Z,56103.59
2018-09-28T05:57:52.887Z,56077.88
2018-09-28T06:00:27.390Z,56109.76
2018-09-28T06:03:01.783Z,56105.64
2018-09-28T06:05:33.692Z,56100.50
2018-09-28T06:08:03.166Z,56128.27
2018-09-28T06:10:32.621Z,56100.50
2018-09-28T06:13:01.782Z,56107.70
2018-09-28T06:15:30.978Z,56075.82
2018-09-28T06:18:00.243Z,56094.33
2018-09-28T06:20:29.804Z,56100.50
2018-09-28T06:22:59.067Z,56120.04
2018-09-28T06:25:28.309Z,56100.50
2018-09-28T06:27:57.489Z,56095.36
2018-09-28T06:30:26.633Z,56094.33
2018-09-28T06:32:55.785Z,56089.19
2018-09-28T06:35:24.979Z,56087.14
2018-09-28T06:37:54.128Z,56127.23
2018-09-28T06:40:23.348Z,56091.25
2018-09-28T06:42:52.510Z,56088.16
2018-09-28T06:45:21.703Z,56088.16
2018-09-28T06:47:50.868Z,56097.42
2018-09-28T06:50:20.016Z,56096.39
2018-09-28T06:52:49.134Z,56075.82
2018-09-28T06:55:18.330Z,56101.53
2018-09-28T06:57:47.558Z,56095.36
2018-09-28T07:00:16.820Z,56092.28
2018-09-28T07:02:45.873Z,56119.01
2018-09-28T07:05:15.109Z,56099.47
2018-09-28T07:07:44.260Z,56077.88
2018-09-28T07:10:13.469Z,56090.22
2018-09-28T07:12:42.589Z,56117.98
2018-09-28T07:15:11.765Z,56125.18
2018-09-28T07:17:40.950Z,56108.73
2018-09-28T07:20:10.157Z,56121.07
2018-09-28T07:22:39.294Z,56097.42
2018-09-28T07:25:08.609Z,56101.53
2018-09-28T07:27:37.727Z,56070.68
2018-09-28T07:30:07.414Z,56104.62
2018-09-28T07:32:36.514Z,56084.05
2018-09-28T07:35:05.754Z,56073.77
2018-09-28T07:37:34.925Z,56063.48
2018-09-28T07:40:04.076Z,56053.20
2018-09-28T07:42:33.240Z,56098.45
2018-09-28T07:45:02.426Z,56090.22
2018-09-28T07:47:31.573Z,56074.80
2018-09-28T07:50:00.746Z,56064.51
2018-09-28T07:52:29.894Z,56079.94
2018-09-28T07:54:59.086Z,56086.11
2018-09-28T07:57:28.326Z,56049.09
2018-09-28T07:59:57.431Z,56055.26
2018-09-28T08:02:26.623Z,56095.36
2018-09-28T08:04:55.857Z,56090.22
2018-09-28T08:07:25.014Z,56064.51
2018-09-28T08:09:54.190Z,56069.65
2018-09-28T08:12:23.368Z,56083.02
2018-09-28T08:14:52.565Z,56073.77
2018-09-28T08:17:21.764Z,56104.62
2018-09-28T08:19:50.971Z,56097.42
2018-09-28T08:22:20.096Z,56110.79
2018-09-28T08:24:49.320Z,56051.14
2018-09-28T08:27:18.555Z,56083.02
2018-09-28T08:29:47.742Z,56090.22
2018-09-28T08:32:16.909Z,56080.96
2018-09-28T08:34:46.116Z,56083.02
2018-09-28T08:37:15.290Z,56041.89
2018-09-28T08:39:44.437Z,56062.46
2018-09-28T08:42:13.614Z,56054.23
2018-09-28T08:44:42.745Z,56080.96
2018-09-28T08:47:11.921Z,56069.65
2018-09-28T08:49:41.180Z,56056.29
2018-09-28T08:52:10.437Z,56051.14
2018-09-28T08:54:39.592Z,56034.70
2018-09-28T08:57:08.803Z,56054.23
2018-09-28T08:59:37.963Z,56067.60
2018-09-28T09:02:07.150Z,56087.14
2018-09-28T09:04:36.265Z,56075.82
2018-09-28T09:07:05.441Z,56040.86
2018-09-28T09:09:34.652Z,56048.06
2018-09-28T09:12:03.837Z,56026.47
2018-09-28T09:14:33.042Z,56050.12
2018-09-28T09:17:02.249Z,56054.23
2018-09-28T09:19:31.434Z,56028.52
2018-09-28T09:22:00.582Z,55967.86
2018-09-28T09:24:29.774Z,56018.24
2018-09-28T09:26:58.963Z,56011.05
2018-09-28T09:29:28.105Z,56046.00
2018-09-28T09:31:57.246Z,56022.36
2018-09-28T09:34:26.382Z,56025.44
2018-09-28T09:36:55.561Z,56036.75
2018-09-28T09:39:24.711Z,56069.65
2018-09-28T09:41:53.856Z,56063.48
2018-09-28T09:44:23.046Z,56065.54
2018-09-28T09:46:52.203Z,56033.67
2018-09-28T09:49:21.414Z,56061.43
2018-09-28T09:51:50.601Z,56049.09
2018-09-28T09:54:19.798Z,56033.67
2018-09-28T09:56:48.996Z,55995.62
2018-09-28T09:59:18.192Z,56015.16
2018-09-28T10:01:52.760Z,56005.90
2018-09-28T10:04:21.946Z,56018.24
2018-09-28T10:06:51.215Z,55977.11
2018-09-28T10:09:20.424Z,56023.38
2018-09-28T10:11:49.676Z,56034.70
2018-09-28T10:14:18.840Z,56021.33
2018-09-28T10:16:48.062Z,56010.02
2018-09-28T10:19:17.251Z,56031.61
2018-09-28T10:21:52.806Z,56057.32
2018-09-28T10:24:21.999Z,56056.29
2018-09-28T10:26:51.174Z,56040.86
2018-09-28T10:29:20.329Z,56017.21
2018-09-28T10:31:49.511Z,56034.70
2018-09-28T10:34:18.760Z,56064.51
2018-09-28T10:36:47.904Z,56064.51
2018-09-28T10:39:17.115Z,56032.64
2018-09-28T10:41:46.239Z,56052.18
2018-09-28T10:44:15.406Z,56043.95
2018-09-28T10:46:44.549Z,56044.98
2018-09-28T10:49:13.732Z,56025.44
2018-09-28T10:51:43.059Z,56038.81
2018-09-28T10:54:13.160Z,56013.10
2018-09-28T10:56:42.524Z,56022.36
2018-09-28T10:59:11.701Z,56014.13
2018-09-28T11:01:40.874Z,56055.26
2018-09-28T11:04:10.093Z,55991.51
2018-09-28T11:06:39.181Z,56037.78
2018-09-28T11:09:10.314Z,56038.81
2018-09-28T11:11:39.845Z,56040.86
2018-09-28T11:14:09.029Z,56001.79
2018-09-28T11:16:38.462Z,56007.96
2018-09-28T11:19:07.715Z,56017.21
2018-09-28T11:21:36.973Z,56038.81
2018-09-28T11:24:06.099Z,56018.24
2018-09-28T11:26:35.316Z,56014.13
2018-09-28T11:29:04.491Z,56044.98
2018-09-28T11:31:33.664Z,56044.98
2018-09-28T11:34:03.839Z,56027.50
2018-09-28T11:36:32.991Z,56029.55
2018-09-28T11:39:02.118Z,56036.75
2018-09-28T11:41:31.285Z,56040.86
2018-09-28T11:44:00.456Z,56028.52
2018-09-28T11:46:30.067Z,56025.44
2018-09-28T11:48:59.586Z,56001.79
2018-09-28T11:51:28.763Z,56034.70
2018-09-28T11:53:57.905Z,56041.89
2018-09-28T11:56:27.130Z,56041.89
2018-09-28T11:58:56.480Z,56022.36
2018-09-28T12:01:25.675Z,56010.02
2018-09-28T12:03:54.808Z,56016.19
2018-09-28T12:06:24.097Z,56012.07
2018-09-28T12:08:53.187Z,55981.23
2018-09-28T12:11:22.380Z,55996.65
2018-09-28T12:13:51.600Z,55993.57
2018-09-28T12:16:20.746Z,55997.68
2018-09-28T12:18:49.968Z,55983.28
2018-09-28T12:21:19.180Z,56029.55
2018-09-28T12:23:48.401Z,56021.33
2018-09-28T12:26:17.585Z,56012.07
2018-09-28T12:28:46.786Z,55986.37
2018-09-28T12:31:15.975Z,56005.90
2018-09-28T12:33:45.205Z,56001.79
2018-09-28T12:36:14.319Z,55954.49
2018-09-28T12:38:43.472Z,55997.68
2018-09-28T12:41:12.624Z,55993.57
2018-09-28T12:43:41.803Z,56005.90
2018-09-28T12:46:10.945Z,56003.85
2018-09-28T12:48:40.129Z,56002.82
2018-09-28T12:51:09.281Z,55984.31
2018-09-28T12:53:38.494Z,55983.28
2018-09-28T12:56:07.808Z,55998.71
2018-09-28T12:58:37.051Z,55998.71
2018-09-28T13:01:06.405Z,56012.07
2018-09-28T13:03:35.390Z,56032.64
2018-09-28T13:06:04.520Z,56029.55
2018-09-28T13:08:33.708Z,56026.47
2018-09-28T13:11:02.890Z,56004.87
2018-09-28T13:13:32.052Z,56014.13
2018-09-28T13:16:01.207Z,55994.59
2018-09-28T13:18:30.415Z,55995.62
2018-09-28T13:20:59.603Z,55997.68
2018-09-28T13:23:28.760Z,55931.87
2018-09-28T13:25:57.882Z,55956.55
2018-09-28T13:28:27.084Z,55947.30
2018-09-28T13:30:56.345Z,56004.87
2018-09-28T13:33:25.514Z,56012.07
2018-09-28T13:35:54.719Z,55975.06
2018-09-28T13:38:24.004Z,55971.97
2018-09-28T13:40:53.054Z,55971.97
2018-09-28T13:43:22.178Z,56014.13
2018-09-28T13:45:51.435Z,56019.27
2018-09-28T13:48:20.567Z,56022.36
2018-09-28T13:50:49.779Z,55999.73
2018-09-28T13:53:18.905Z,55965.80
2018-09-28T13:55:48.049Z,56015.16
2018-09-28T13:58:17.311Z,56030.58
2018-09-28T14:00:46.507Z,55993.57
2018-09-28T14:03:16.023Z,56006.93
2018-09-28T14:05:45.190Z,55995.62
2018-09-28T14:08:14.407Z,56022.36
2018-09-28T14:10:43.508Z,56018.24
2018-09-28T14:13:12.648Z,56040.86
2018-09-28T14:15:41.801Z,56028.52
2018-09-28T14:18:10.947Z,56043.95
2018-09-28T14:20:40.168Z,56006.93
2018-09-28T14:23:09.309Z,56007.96
2018-09-28T14:25:38.478Z,56013.10
2018-09-28T14:28:07.746Z,56014.13
2018-09-28T14:30:36.894Z,56018.24
2018-09-28T14:33:06.084Z,55991.51
2018-09-28T14:35:35.226Z,56003.85
2018-09-28T14:38:04.413Z,56001.79
2018-09-28T14:40:33.518Z,55995.62
2018-09-28T14:43:02.680Z,56007.96
2018-09-28T14:45:31.868Z,55979.17
2018-09-28T14:48:01.002Z,56022.36
2018-09-28T14:50:30.208Z,56025.44
2018-09-28T14:52:59.305Z,56002.82
2018-09-28T14:55:28.511Z,56014.13
2018-09-28T14:57:57.680Z,56041.89
2018-09-28T15:00:26.823Z,56024.41
2018-09-28T15:02:56.030Z,56013.10
2018-09-28T15:05:25.184Z,55994.59
2018-09-28T15:07:54.310Z,56027.50
2018-09-28T15:10:23.523Z,56023.38
2018-09-28T15:12:52.616Z,56057.32
2018-09-28T15:15:21.818Z,56041.89
2018-09-28T15:17:50.905Z,56021.33
2018-09-28T15:20:20.075Z,56018.24
2018-09-28T15:22:49.242Z,56001.79
2018-09-28T15:25:18.385Z,56030.58
2018-09-28T15:27:47.622Z,56044.98
2018-09-28T15:30:16.821Z,56030.58
2018-09-28T15:32:46.004Z,56017.21
2018-09-28T15:35:15.191Z,56011.05
2018-09-28T15:37:44.352Z,56031.61
2018-09-28T15:40:13.513Z,56027.50
2018-09-28T15:42:42.700Z,56043.95
2018-09-28T15:45:11.845Z,56017.21
2018-09-28T15:47:41.016Z,56000.76
2018-09-28T15:50:10.139Z,56028.52
2018-09-28T15:52:39.266Z,56020.30
2018-09-28T15:55:08.451Z,56012.07
2018-09-28T15:57:37.673Z,56024.41
2018-09-28T16:00:07.503Z,56022.36
2018-09-28T16:02:36.678Z,56024.41
2018-09-28T16:05:05.854Z,56024.41
2018-09-28T16:07:35.120Z,56007.96
2018-09-28T16:10:04.412Z,56017.21
2018-09-28T16:12:33.546Z,56058.34
2018-09-28T16:15:02.728Z,56055.26
2018-09-28T16:17:31.932Z,56016.19
2018-09-28T16:20:01.281Z,56044.98
2018-09-28T16:22:30.443Z,56046.00
2018-09-28T16:24:59.537Z,56050.12
2018-09-28T16:27:28.668Z,56049.09
2018-09-28T16:29:57.859Z,56011.05
2018-09-28T16:32:27.074Z,56047.03
2018-09-28T16:34:56.216Z,56063.48
2018-09-28T16:37:25.352Z,56025.44
2018-09-28T16:39:54.534Z,56049.09
2018-09-28T16:42:23.693Z,56047.03
2018-09-28T16:44:52.979Z,56064.51
2018-09-28T16:47:22.131Z,56035.72
2018-09-28T16:49:51.309Z,56065.54
2018-09-28T16:52:20.642Z,56061.43
2018-09-28T16:54:49.787Z,56048.06
2018-09-28T16:57:18.949Z,56041.89
2018-09-28T16:59:48.100Z,56059.37
2018-09-28T17:02:17.236Z,56020.30
2018-09-28T17:04:46.423Z,56070.68
2018-09-28T17:07:15.541Z,56060.40
2018-09-28T17:09:44.799Z,56034.70
2018-09-28T17:12:13.957Z,56055.26
2018-09-28T17:14:43.114Z,56060.40
2018-09-28T17:17:12.285Z,56058.34
2018-09-28T17:19:41.393Z,56095.36
2018-09-28T17:22:10.555Z,56035.72
2018-09-28T17:24:39.809Z,56079.94
2018-09-28T17:27:08.924Z,56079.94
2018-09-28T17:29:38.090Z,56064.51
2018-09-28T17:32:07.180Z,56057.32
2018-09-28T17:34:36.350Z,56075.82
2018-09-28T17:37:05.518Z,56076.85
2018-09-28T17:39:34.784Z,56054.23
2018-09-28T17:42:03.854Z,56075.82
2018-09-28T17:44:32.991Z,56062.46
2018-09-28T17:47:02.090Z,56043.95
2018-09-28T17:49:31.238Z,56065.54
2018-09-28T17:52:00.370Z,56104.62
2018-09-28T17:54:29.464Z,56080.96
2018-09-28T17:56:58.558Z,56072.74
2018-09-28T17:59:27.890Z,56074.80
2018-09-28T18:01:57.102Z,56101.53
2018-09-28T18:04:26.250Z,56075.82
2018-09-28T18:06:55.381Z,56078.91
2018-09-28T18:09:24.490Z,56079.94
2018-09-28T18:11:53.728Z,56077.88
2018-09-28T18:14:22.841Z,56065.54
2018-09-28T18:16:51.959Z,56076.85
2018-09-28T18:19:21.167Z,56082.00
2018-09-28T18:21:50.447Z,56103.59
2018-09-28T18:24:19.552Z,56089.19
2018-09-28T18:26:48.702Z,56075.82
2018-09-28T18:29:17.859Z,56099.47
2018-09-28T18:31:47.006Z,56094.33
2018-09-28T18:34:16.144Z,56092.28
2018-09-28T18:36:45.292Z,56057.32
2018-09-28T18:39:14.541Z,56087.14
2018-09-28T18:41:43.710Z,56056.29
2018-09-28T18:44:12.849Z,56084.05
2018-09-28T18:46:41.958Z,56053.20
2018-09-28T18:49:11.087Z,56048.06
2018-09-28T18:51:40.203Z,56098.45
2018-09-28T18:54:09.372Z,56063.48
2018-09-28T18:56:38.517Z,56086.11
2018-09-28T18:59:07.798Z,56044.98
2018-09-28T19:01:36.981Z,56100.50
2018-09-28T19:04:06.138Z,56070.68
2018-09-28T19:06:35.266Z,56069.65
2018-09-28T19:09:06.045Z,56073.77
2018-09-28T19:11:35.214Z,56101.53
2018-09-28T19:14:04.352Z,56103.59
2018-09-28T19:16:33.496Z,56085.08
2018-09-28T19:19:02.641Z,56075.82
2018-09-28T19:21:31.906Z,56123.12
2018-09-28T19:24:00.970Z,56102.56
2018-09-28T19:26:30.127Z,56096.39
2018-09-28T19:28:59.269Z,56066.57
2018-09-28T19:31:28.481Z,56068.62
2018-09-28T19:33:57.586Z,56058.34
2018-09-28T19:36:26.767Z,56098.45
2018-09-28T19:38:55.927Z,56091.25
2018-09-28T19:41:25.072Z,56078.91
2018-09-28T19:43:54.219Z,56098.45
2018-09-28T19:46:23.399Z,56116.95
2018-09-28T19:48:52.538Z,56114.90
2018-09-28T19:51:21.682Z,56062.46
2018-09-28T19:53:50.780Z,56095.36
2018-09-28T19:56:19.920Z,56067.60
2018-09-28T19:58:49.050Z,56086.11
2018-09-28T20:01:18.257Z,56102.56
2018-09-28T20:03:47.396Z,56056.29
2018-09-28T20:06:16.620Z,56046.00
2018-09-28T20:08:45.720Z,56121.07
2018-09-28T20:11:14.846Z,56098.45
2018-09-28T20:13:43.986Z,56071.71
2018-09-28T20:16:13.149Z,56088.16
2018-09-28T20:18:42.316Z,56084.05
2018-09-28T20:21:11.470Z,56070.68
2018-09-28T20:23:40.618Z,56100.50
2018-09-28T20:26:09.755Z,56059.37
2018-09-28T20:28:38.986Z,56078.91
2018-09-28T20:31:08.185Z,56073.77
2018-09-28T20:33:37.316Z,56111.81
2018-09-28T20:36:06.482Z,56096.39
2018-09-28T20:38:35.678Z,56085.08
2018-09-28T20:41:04.798Z,56108.73
2018-09-28T20:43:33.940Z,56090.22
2018-09-28T20:46:03.042Z,56126.21
2018-09-28T20:48:32.194Z,56071.71
2018-09-28T20:51:01.289Z,56089.19
2018-09-28T20:53:30.442Z,56088.16
2018-09-28T20:55:59.650Z,56095.36
2018-09-28T20:58:28.791Z,56100.50
2018-09-28T21:00:57.882Z,56092.28
2018-09-28T21:03:27.032Z,56093.30
2018-09-28T21:05:56.157Z,56077.88
2018-09-28T21:08:28.119Z,56096.39
2018-09-28T21:10:57.215Z,56098.45
2018-09-28T21:13:26.726Z,56125.18
2018-09-28T21:15:55.845Z,56116.95
2018-09-28T21:18:25.005Z,56126.21
2018-09-28T21:20:54.151Z,56074.80
2018-09-28T21:23:23.244Z,56122.09
2018-09-28T21:25:52.388Z,56098.45
2018-09-28T21:28:21.511Z,56110.79
2018-09-28T21:30:50.660Z,56108.73
2018-09-28T21:33:19.814Z,56101.53
2018-09-28T21:35:48.931Z,56133.41
2018-09-28T21:38:18.093Z,56099.47
2018-09-28T21:40:47.239Z,56094.33
2018-09-28T21:43:16.449Z,56129.29
2018-09-28T21:45:45.612Z,56133.41
2018-09-28T21:48:14.731Z,56096.39
2018-09-28T21:50:43.903Z,56108.73
2018-09-28T21:53:13.032Z,56108.73
2018-09-28T21:55:42.161Z,56110.79
2018-09-28T21:58:11.328Z,56125.18
2018-09-28T22:00:40.539Z,56074.80
2018-09-28T22:03:09.957Z,56082.00
2018-09-28T22:05:39.101Z,56088.16
2018-09-28T22:08:08.201Z,56092.28
2018-09-28T22:10:37.373Z,56092.28
2018-09-28T22:13:06.511Z,56106.67
2018-09-28T22:15:35.653Z,56094.33
2018-09-28T22:18:04.901Z,56102.56
2018-09-28T22:20:34.061Z,56084.05
2018-09-28T22:23:03.184Z,56108.73
2018-09-28T22:25:32.317Z,56108.73
2018-09-28T22:28:01.521Z,56100.50
2018-09-28T22:30:30.651Z,56114.90
2018-09-28T22:32:59.805Z,56103.59
2018-09-28T22:35:29.026Z,56132.38
2018-09-28T22:37:58.193Z,56107.70
2018-09-28T22:40:27.330Z,56103.59
2018-09-28T22:42:56.464Z,56094.33
2018-09-28T22:45:25.589Z,56069.65
2018-09-28T22:47:54.708Z,56106.67
2018-09-28T22:50:23.855Z,56087.14
2018-09-28T22:52:52.971Z,56106.67
2018-09-28T22:55:22.106Z,56100.50
2018-09-28T22:57:51.265Z,56077.88
2018-09-28T23:00:20.464Z,56103.59
2018-09-28T23:02:49.652Z,56112.84
2018-09-28T23:05:18.790Z,56112.84
2018-09-28T23:07:47.911Z,56084.05
2018-09-28T23:10:17.061Z,56127.23
2018-09-28T23:12:46.192Z,56083.02
2018-09-28T23:15:15.352Z,56102.56
2018-09-28T23:17:44.554Z,56062.46
2018-09-28T23:20:13.701Z,56130.32
2018-09-28T23:22:42.887Z,56064.51
2018-09-28T23:25:12.071Z,56108.73
2018-09-28T23:27:41.198Z,56112.84
2018-09-28T23:30:10.332Z,56098.45
2018-09-28T23:32:39.506Z,56067.60
2018-09-28T23:35:08.667Z,56087.14
2018-09-28T23:37:37.818Z,56101.53
2018-09-28T23:40:07.248Z,56101.53
2018-09-28T23:42:36.407Z,56074.80
2018-09-28T23:45:05.553Z,56113.87
2018-09-28T23:47:34.734Z,56108.73
2018-09-28T23:50:03.884Z,56110.79
2018-09-28T23:52:32.990Z,56111.81
2018-09-28T23:55:02.234Z,56122.09
2018-09-28T23:57:31.357Z,56116.95
